Airfield :
LOGIN :

Register | Disclaimer

   EN    FR    IT 

 










Legend :    VFR   Marginal VFR   IFR   Intensive IFR   Very Intensive IFR
Visi :
Ceiling :
>= 8 km
>= 3000ft
5 to 8 km
1000 to 3000 ft
1500m to 5 km
500 to 1000 ft
800 to 1500m
200 to 500 ft
< 800m
< 200 ft
Symbols :   Thunderstorms  Fog  Heavy snow  Heavy precipitations  Wind > 20 kt
SIGMETs :     Misc.  Thunderstorms  Icing  Turbulence  Mountain Waves  Volcanic Ashes






- Airport Elevation : 485 ft
- IATA code : QSA


LELL - Sabadell

CURRENT METAR :
  • 180400Z AUTO 30001KT CAVOK 22/20 Q1013

EXPIRED METARs :
  • 180330Z AUTO 00000KT CAVOK 22/20 Q1012
  • 180300Z AUTO 00000KT CAVOK 22/20 Q1012
  • 180230Z AUTO VRB01KT CAVOK 23/20 Q1012
  • 180200Z AUTO VRB02KT CAVOK 23/20 Q1012
  • 180130Z AUTO 29004KT CAVOK 23/20 Q1012

TAF TAF LELL
Valid from the 18 at 03:00 until the 19 at 03:00 UTC


180200Z 1803/1903 VRB04KT 9999 FEW020 TX33/1813Z TN17/1806Z
BECMG 1810/1812 13012KT
BECMG 1819/1821 VRB04KT
PROB30
TEMPO 1821/1903 VRB15G25KT 3000 TSRA FEW070CB



MET'MAP, your aeronautical weather chart ! - Copyright ORBIFLY December 2007 - Disclaimer

ORBIFLY MET'MAP TEAM :

Programming & Development : Alexandra Zaïnal
Concept & original design : Baudouin d'Aumeries
Assistance for programming : Marc-Olivier Méhu
Technical & hardware support : Manuel Goepfert

Contact : metmap@orbifly.com




SOURCES & CREDITS :

   NOAA